Time;durP1;ratioP1;P1;durP2;ratioP2;P2;SDS_P1;SDS_P2;PMS_P1;PMS_P2;Temp;Humidity;BMP_temperature;BMP_pressure;BME280_temperature;BME280_humidity;BME280_pressure;Samples;Min_cycle;Max_cycle;Signal;HPM_P1;HPM_P2
2023/06/19 00:01:36;;;;;;;6.20;4.37;;;24.20;99.90;;;;;;5040544;28;20514;-81
2023/06/19 00:04:14;;;;;;;6.13;4.40;;;24.20;99.90;;;;;;5041068;28;20539;-81
2023/06/19 00:07:22;;;;;;;;;;;;;;;;;;;;;
2023/06/19 00:10:01;;;;;;;5.10;4.13;;;24.10;99.90;;;;;;5006004;28;20544;-79
2023/06/19 00:12:39;;;;;;;4.90;4.40;;;24.10;99.90;;;;;;5038503;28;20507;-80
2023/06/19 00:18:28;;;;;;;4.80;4.30;;;24.00;99.90;;;;;;5041705;28;21041;-80
2023/06/19 00:21:26;;;;;;;;;;;;;;;;;;;;;
2023/06/19 00:23:54;;;;;;;5.33;4.80;;;23.80;99.90;;;;;;4974154;28;20534;-81
2023/06/19 00:26:27;;;;;;;5.80;4.90;;;23.70;99.90;;;;;;5040362;28;20488;-80
2023/06/19 00:29:06;;;;;;;5.10;4.10;;;23.70;99.90;;;;;;5050536;28;20563;-80
2023/06/19 00:31:40;;;;;;;5.90;4.43;;;23.70;99.90;;;;;;5044849;28;20480;-80
2023/06/19 00:34:15;;;;;;;4.93;4.20;;;23.60;99.90;;;;;;5047034;28;20433;-79
2023/06/19 00:36:42;;;;;;;5.10;4.60;;;23.50;99.90;;;;;;5048787;28;20534;-81
2023/06/19 00:39:17;;;;;;;5.13;4.63;;;23.50;99.90;;;;;;5049036;28;20539;-78
2023/06/19 00:41:54;;;;;;;5.37;4.60;;;23.40;99.90;;;;;;5036390;28;20519;-80
2023/06/19 00:44:23;;;;;;;5.30;4.47;;;23.40;99.90;;;;;;5040909;28;20459;-80
2023/06/19 00:46:54;;;;;;;5.90;4.40;;;23.30;99.90;;;;;;5038777;28;20804;-79
2023/06/19 00:49:39;;;;;;;5.03;4.53;;;23.30;99.90;;;;;;5037016;28;20477;-79
2023/06/19 00:52:09;;;;;;;5.33;4.67;;;23.20;99.90;;;;;;5037085;28;21063;-81
2023/06/19 00:54:40;;;;;;;4.97;4.40;;;23.20;99.90;;;;;;5034729;28;20501;-78
2023/06/19 00:57:15;;;;;;;5.53;4.43;;;23.10;99.90;;;;;;5033324;28;20457;-80
2023/06/19 00:59:52;;;;;;;8.10;4.53;;;23.10;99.90;;;;;;5034741;28;20456;-80
2023/06/19 01:02:23;;;;;;;5.67;4.10;;;23.00;99.90;;;;;;5014148;28;20473;-78
2023/06/19 01:04:57;;;;;;;5.50;4.37;;;23.10;99.90;;;;;;5034183;28;20448;-78
2023/06/19 01:07:33;;;;;;;4.97;4.47;;;23.00;99.90;;;;;;5034258;28;20468;-77
2023/06/19 01:10:05;;;;;;;6.20;5.50;;;23.00;1.00;;;;;;5034270;28;20518;-78
2023/06/19 01:12:37;;;;;;;5.00;4.50;;;23.00;1.00;;;;;;5034251;28;20935;-78
2023/06/19 01:15:11;;;;;;;5.50;4.77;;;23.00;1.00;;;;;;5034563;28;20475;-78
2023/06/19 01:17:40;;;;;;;4.87;4.37;;;23.00;1.00;;;;;;5035760;28;20465;-78
2023/06/19 01:20:37;;;;;;;5.23;4.50;;;23.00;1.00;;;;;;5036856;28;20461;-77
2023/06/19 01:23:15;;;;;;;5.00;4.50;;;23.00;1.00;;;;;;5039302;28;20464;-80
2023/06/19 01:25:58;;;;;;;4.90;4.00;;;23.00;1.00;;;;;;5038332;28;20487;-79
2023/06/19 01:29:09;;;;;;;;;;;;;;;;;;;;;
2023/06/19 01:35:05;;;;;;;4.50;3.90;;;23.00;1.00;;;;;;4944903;28;20435;-81
2023/06/19 01:41:02;;;;;;;5.20;4.57;;;22.90;1.00;;;;;;5013651;28;20448;-79
2023/06/19 01:43:31;;;;;;;5.37;4.63;;;22.80;1.00;;;;;;5038915;28;20448;-78
2023/06/19 01:46:03;;;;;;;5.60;4.47;;;22.80;1.00;;;;;;5038775;28;20461;-79
2023/06/19 01:48:38;;;;;;;5.00;4.40;;;22.80;1.00;;;;;;5039881;28;20479;-79
2023/06/19 01:51:20;;;;;;;5.17;4.67;;;22.70;1.00;;;;;;5036143;28;20510;-78
2023/06/19 01:57:17;;;;;;;6.43;4.90;;;22.70;1.00;;;;;;4977778;28;20498;-78
2023/06/19 01:59:50;;;;;;;7.33;4.60;;;22.70;1.00;;;;;;4978176;28;20505;-78
2023/06/19 02:02:26;;;;;;;4.80;3.90;;;22.60;1.00;;;;;;5034405;28;20558;-81
2023/06/19 02:04:59;;;;;;;5.27;4.40;;;22.60;1.00;;;;;;5035361;28;20441;-78
2023/06/19 02:11:03;;;;;;;4.90;3.93;;;22.50;1.00;;;;;;4918530;29;20472;-78
2023/06/19 02:13:35;;;;;;;4.97;4.33;;;22.50;1.00;;;;;;4985438;28;20834;-78
2023/06/19 02:16:05;;;;;;;5.03;4.53;;;22.40;1.00;;;;;;5036824;28;20453;-77
2023/06/19 02:18:36;;;;;;;4.80;4.30;;;22.40;1.00;;;;;;5038130;28;20554;-78
2023/06/19 02:21:03;;;;;;;5.17;4.40;;;22.40;1.00;;;;;;5037681;28;20452;-78
2023/06/19 02:23:30;;;;;;;7.10;4.60;;;22.40;43.70;;;;;;5037999;28;20483;-79
2023/06/19 02:26:03;;;;;;;5.70;4.40;;;22.30;1.00;;;;;;5037570;28;20453;-78
2023/06/19 02:28:34;;;;;;;4.80;4.20;;;22.30;99.90;;;;;;5018259;28;20831;-79
2023/06/19 02:31:04;;;;;;;5.77;4.80;;;22.30;99.90;;;;;;5021588;28;20469;-79
2023/06/19 02:33:34;;;;;;;6.03;4.10;;;22.30;99.90;;;;;;5040374;28;20444;-79
2023/06/19 02:36:04;;;;;;;4.87;4.37;;;22.30;99.90;;;;;;5039643;28;21019;-78
2023/06/19 02:41:25;;;;;;;5.37;4.60;;;22.30;99.90;;;;;;5041284;28;20790;-79
2023/06/19 02:47:03;;;;;;;5.77;4.80;;;22.30;99.90;;;;;;5041852;28;20452;-79
2023/06/19 02:53:02;;;;;;;;;;;;;;;;;;;;;
2023/06/19 03:01:38;;;;;;;;;;;;;;;;;;;;;
2023/06/19 03:04:28;;;;;;;5.60;4.80;;;22.40;1.00;;;;;;5039926;28;20531;-79
2023/06/19 03:07:16;;;;;;;5.90;4.37;;;22.40;1.00;;;;;;5041922;28;20452;-81
2023/06/19 03:10:03;;;;;;;6.30;5.30;;;22.40;1.00;;;;;;5042439;28;20433;-81
2023/06/19 03:19:26;;;;;;;4.83;4.23;;;22.70;1.00;;;;;;4905970;29;20493;-79
2023/06/19 03:22:40;;;;;;;8.70;5.00;;;22.70;1.00;;;;;;4916445;29;20457;-79
2023/06/19 03:28:24;;;;;;;5.53;4.60;;;22.80;1.00;;;;;;4881341;29;20515;-79
2023/06/19 03:30:58;;;;;;;7.27;4.70;;;22.90;1.00;;;;;;4964787;28;20455;-78
2023/06/19 03:33:27;;;;;;;6.20;4.10;;;22.90;1.00;;;;;;4991475;28;20519;-78
2023/06/19 03:35:58;;;;;;;6.27;4.33;;;22.90;1.00;;;;;;5030574;28;20872;-78
2023/06/19 03:38:25;;;;;;;6.93;4.20;;;22.90;1.00;;;;;;5057718;22;20480;-80
2023/06/19 03:40:52;;;;;;;5.33;3.80;;;22.90;1.00;;;;;;5036991;28;20463;-80
2023/06/19 03:43:18;;;;;;;6.23;4.00;;;22.80;1.00;;;;;;5039121;28;20456;-81
2023/06/19 03:45:47;;;;;;;4.93;4.40;;;22.80;1.00;;;;;;5039692;28;20543;-80
2023/06/19 03:48:13;;;;;;;4.63;3.93;;;22.90;1.00;;;;;;5035948;28;20533;-79
2023/06/19 03:50:40;;;;;;;6.30;3.53;;;22.90;1.00;;;;;;5029021;28;20847;-80
2023/06/19 03:53:07;;;;;;;6.00;4.57;;;22.90;1.00;;;;;;5038310;28;20480;-81
2023/06/19 03:55:34;;;;;;;5.93;4.47;;;22.80;1.00;;;;;;5039210;28;20452;-81
2023/06/19 03:58:01;;;;;;;4.70;3.97;;;22.80;1.00;;;;;;5042201;28;20449;-83
2023/06/19 04:00:28;;;;;;;6.93;4.57;;;22.80;1.00;;;;;;5052574;28;20536;-80
2023/06/19 04:02:56;;;;;;;5.63;3.83;;;22.80;1.00;;;;;;5050902;28;20504;-80
2023/06/19 04:05:23;;;;;;;5.43;3.77;;;22.80;1.00;;;;;;5051163;28;20491;-81
2023/06/19 04:07:50;;;;;;;5.93;3.90;;;22.80;1.00;;;;;;5050657;28;20441;-81
2023/06/19 04:10:17;;;;;;;5.60;4.07;;;22.80;1.00;;;;;;5051279;28;20536;-80
2023/06/19 04:12:45;;;;;;;4.50;3.43;;;22.60;1.00;;;;;;5049816;28;20509;-81
2023/06/19 04:15:12;;;;;;;7.00;3.30;;;22.50;1.00;;;;;;5049415;28;20536;-80
2023/06/19 04:17:38;;;;;;;7.00;2.97;;;22.50;1.00;;;;;;5038382;28;20467;-79
2023/06/19 04:20:10;;;;;;;5.50;3.80;;;22.50;1.00;;;;;;5039066;28;20481;-79
2023/06/19 04:22:38;;;;;;;4.30;3.17;;;22.40;1.00;;;;;;5039078;28;20988;-80
2023/06/19 04:25:05;;;;;;;4.93;3.30;;;22.40;1.00;;;;;;5037920;28;20483;-80
2023/06/19 04:27:32;;;;;;;4.53;3.97;;;22.30;85.50;;;;;;5037999;28;20456;-81
2023/06/19 04:29:59;;;;;;;3.27;2.60;;;22.30;24.80;;;;;;5037134;28;20648;-79
2023/06/19 04:32:26;;;;;;;3.60;2.80;;;22.30;43.10;;;;;;5039532;28;20524;-81
2023/06/19 04:34:53;;;;;;;3.97;2.43;;;22.20;72.50;;;;;;5038112;28;20824;-81
2023/06/19 04:37:21;;;;;;;4.33;3.10;;;22.20;99.90;;;;;;5038374;28;20543;-80
2023/06/19 04:39:48;;;;;;;3.90;2.83;;;22.10;99.90;;;;;;5039685;28;20485;-80
2023/06/19 04:42:19;;;;;;;4.30;2.80;;;22.20;99.90;;;;;;5038573;28;20536;-80
2023/06/19 04:44:46;;;;;;;4.23;3.17;;;22.20;99.90;;;;;;5039658;28;20473;-82
2023/06/19 04:47:13;;;;;;;4.37;2.80;;;22.20;99.90;;;;;;5039529;28;20459;-82
2023/06/19 04:49:40;;;;;;;6.90;3.13;;;22.20;99.90;;;;;;5039033;28;20469;-80
2023/06/19 04:52:07;;;;;;;4.97;2.70;;;22.10;99.90;;;;;;5037984;28;20492;-83
2023/06/19 04:54:35;;;;;;;5.93;2.60;;;22.10;99.90;;;;;;5037714;28;20452;-82
2023/06/19 04:57:02;;;;;;;5.97;3.40;;;22.00;99.90;;;;;;5038827;28;20453;-81
2023/06/19 04:59:30;;;;;;;4.90;2.90;;;22.00;99.90;;;;;;5038996;28;20920;-82
2023/06/19 05:01:57;;;;;;;6.33;3.10;;;22.00;1.00;;;;;;5038714;28;20453;-82
2023/06/19 05:04:24;;;;;;;3.20;2.60;;;21.90;1.00;;;;;;5038652;28;20452;-82
2023/06/19 05:06:51;;;;;;;4.90;3.03;;;22.00;1.00;;;;;;5037340;28;20453;-83
2023/06/19 05:09:18;;;;;;;5.33;3.50;;;21.90;1.00;;;;;;5025630;28;20487;-80
2023/06/19 05:11:46;;;;;;;4.10;2.53;;;22.00;1.00;;;;;;5038782;28;20556;-81
2023/06/19 05:14:14;;;;;;;5.03;2.60;;;21.90;1.00;;;;;;5035091;28;20936;-81
2023/06/19 05:16:40;;;;;;;4.97;3.10;;;22.00;99.90;;;;;;5036454;28;20461;-82
2023/06/19 05:19:07;;;;;;;5.03;2.40;;;22.00;1.00;;;;;;5050938;28;20471;-81
2023/06/19 05:21:34;;;;;;;3.43;2.43;;;22.00;34.80;;;;;;5064041;28;20436;-82
2023/06/19 05:24:01;;;;;;;4.63;2.63;;;22.10;1.00;;;;;;5052991;28;20534;-80
2023/06/19 05:26:28;;;;;;;4.23;2.77;;;22.10;1.00;;;;;;5054787;28;20535;-81
2023/06/19 05:28:56;;;;;;;3.17;2.53;;;22.10;1.00;;;;;;5039358;28;21027;-82
2023/06/19 05:31:23;;;;;;;3.67;2.50;;;22.20;25.90;;;;;;5038608;28;20457;-81
2023/06/19 05:33:50;;;;;;;3.30;2.37;;;22.10;1.00;;;;;;5039112;28;20492;-81
2023/06/19 05:36:17;;;;;;;4.40;3.83;;;22.00;39.10;;;;;;5037784;28;20452;-81
2023/06/19 05:38:45;;;;;;;4.13;2.27;;;22.10;1.00;;;;;;5038251;28;20488;-81
2023/06/19 05:41:15;;;;;;;4.40;2.67;;;22.10;1.00;;;;;;5038223;28;20452;-81
2023/06/19 05:43:43;;;;;;;3.50;2.40;;;22.30;1.00;;;;;;5035333;28;20964;-82
2023/06/19 05:46:11;;;;;;;3.40;2.20;;;22.40;1.00;;;;;;5037694;28;20477;-81
2023/06/19 05:48:38;;;;;;;3.27;2.27;;;22.40;1.00;;;;;;5039350;28;20505;-81
2023/06/19 05:51:05;;;;;;;3.10;2.43;;;22.30;1.00;;;;;;5048963;28;20455;-81
2023/06/19 05:53:34;;;;;;;3.73;2.03;;;22.30;1.00;;;;;;5040856;28;21000;-85
2023/06/19 05:56:01;;;;;;;3.50;2.30;;;22.40;1.00;;;;;;5052680;28;20972;-82
2023/06/19 05:58:28;;;;;;;2.93;2.00;;;22.40;1.00;;;;;;5042875;28;20460;-82
2023/06/19 06:00:57;;;;;;;3.87;2.87;;;22.20;1.00;;;;;;5035947;28;20522;-81
2023/06/19 06:03:26;;;;;;;3.77;2.50;;;22.40;1.00;;;;;;5036937;28;20480;-81
2023/06/19 06:05:52;;;;;;;3.37;2.27;;;22.30;1.00;;;;;;5040512;28;20479;-81
2023/06/19 06:08:19;;;;;;;5.90;3.23;;;22.40;1.00;;;;;;5042316;28;20488;-81
2023/06/19 06:10:48;;;;;;;5.20;2.70;;;22.40;1.00;;;;;;5042283;28;21107;-82
2023/06/19 06:13:15;;;;;;;5.70;2.40;;;22.30;1.00;;;;;;5044668;28;20500;-82
2023/06/19 06:15:41;;;;;;;3.53;2.30;;;22.30;1.00;;;;;;5046435;28;20932;-82
2023/06/19 06:18:08;;;;;;;4.67;2.40;;;22.30;1.00;;;;;;5040632;28;20544;-84
2023/06/19 06:20:36;;;;;;;5.50;2.40;;;22.30;1.00;;;;;;5040993;28;21047;-84
2023/06/19 06:23:03;;;;;;;3.53;2.10;;;22.40;1.00;;;;;;5047670;28;20517;-84
2023/06/19 06:25:32;;;;;;;3.43;2.93;;;22.50;1.00;;;;;;5043451;28;20468;-83
2023/06/19 06:27:59;;;;;;;3.90;2.30;;;22.50;99.90;;;;;;5041732;28;20448;-84
2023/06/19 06:30:27;;;;;;;4.50;2.80;;;22.50;99.90;;;;;;5040780;28;20468;-84
2023/06/19 06:32:54;;;;;;;2.90;2.00;;;22.50;1.00;;;;;;5039456;28;20511;-83
2023/06/19 06:35:21;;;;;;;5.80;2.13;;;22.50;1.00;;;;;;5038873;28;20544;-83
2023/06/19 06:37:49;;;;;;;4.37;2.30;;;22.60;99.90;;;;;;5041661;28;20457;-83
2023/06/19 06:40:16;;;;;;;4.07;2.60;;;22.60;1.00;;;;;;5041085;28;20479;-83
2023/06/19 06:42:43;;;;;;;3.83;2.43;;;22.60;1.00;;;;;;5041642;28;20466;-83
2023/06/19 06:45:11;;;;;;;6.20;2.40;;;22.80;1.00;;;;;;5039935;28;20509;-83
2023/06/19 06:47:39;;;;;;;3.37;2.10;;;22.90;99.90;;;;;;5040373;28;20457;-84
2023/06/19 06:50:07;;;;;;;3.73;2.57;;;23.00;1.00;;;;;;5047654;28;20482;-82
2023/06/19 06:52:34;;;;;;;3.60;2.83;;;23.10;99.90;;;;;;5039224;28;20560;-82
2023/06/19 06:55:02;;;;;;;3.03;2.43;;;23.10;99.90;;;;;;5031522;28;20655;-83
2023/06/19 06:57:29;;;;;;;3.43;2.53;;;23.20;1.00;;;;;;5040067;28;20544;-83
2023/06/19 06:59:56;;;;;;;4.23;2.37;;;23.10;99.90;;;;;;5038808;28;20484;-82
2023/06/19 07:02:23;;;;;;;6.03;2.43;;;23.20;99.90;;;;;;5044223;28;20449;-83
2023/06/19 07:04:51;;;;;;;4.00;2.00;;;23.30;99.90;;;;;;5039025;28;20841;-83
2023/06/19 07:07:17;;;;;;;3.43;2.20;;;23.20;99.90;;;;;;5033020;28;20449;-83
2023/06/19 07:09:44;;;;;;;4.90;2.60;;;23.20;99.90;;;;;;5037187;28;20540;-83
2023/06/19 07:12:12;;;;;;;5.90;2.60;;;23.20;99.90;;;;;;5035516;28;20445;-83
2023/06/19 07:14:39;;;;;;;4.00;2.53;;;23.20;99.90;;;;;;5035175;28;20462;-83
2023/06/19 07:17:07;;;;;;;3.67;1.93;;;23.20;99.90;;;;;;5030519;28;20454;-83
2023/06/19 07:19:33;;;;;;;4.97;2.10;;;23.10;99.90;;;;;;5038047;28;20495;-84
2023/06/19 07:22:00;;;;;;;3.60;2.30;;;23.20;99.90;;;;;;5036198;28;20457;-82
2023/06/19 07:24:27;;;;;;;3.30;1.87;;;23.20;99.90;;;;;;5038277;28;20452;-81
2023/06/19 07:26:54;;;;;;;4.80;2.47;;;23.20;99.90;;;;;;5034072;28;20485;-84
2023/06/19 07:29:22;;;;;;;3.17;2.17;;;23.10;99.90;;;;;;5039132;28;20472;-85
2023/06/19 07:31:49;;;;;;;3.53;2.50;;;23.10;99.90;;;;;;5032737;28;20543;-84
2023/06/19 07:34:16;;;;;;;2.80;1.83;;;23.20;99.90;;;;;;5034686;28;20588;-83
2023/06/19 07:36:43;;;;;;;4.70;2.20;;;23.10;99.90;;;;;;5035967;28;20471;-84
2023/06/19 07:39:10;;;;;;;3.87;2.30;;;23.00;99.90;;;;;;5039121;28;20551;-84
2023/06/19 07:41:37;;;;;;;3.97;2.10;;;22.90;99.90;;;;;;5036047;28;20453;-84
2023/06/19 07:44:04;;;;;;;3.10;2.20;;;22.90;1.00;;;;;;5036560;28;20543;-83
2023/06/19 07:46:32;;;;;;;5.10;3.90;;;22.80;1.00;;;;;;5039851;28;20848;-82
2023/06/19 07:48:59;;;;;;;5.03;2.60;;;22.70;99.90;;;;;;5034619;28;20473;-83
2023/06/19 07:51:26;;;;;;;3.73;2.30;;;22.80;1.00;;;;;;5038001;28;20525;-84
2023/06/19 07:53:52;;;;;;;4.00;2.10;;;22.90;1.00;;;;;;5028263;28;21288;-83
2023/06/19 07:56:19;;;;;;;3.30;1.90;;;22.80;99.90;;;;;;5036707;28;20453;-83
2023/06/19 07:58:46;;;;;;;4.17;2.20;;;22.80;4.30;;;;;;5038976;28;20467;-83
2023/06/19 08:01:13;;;;;;;3.53;2.30;;;22.70;1.00;;;;;;5037222;28;20956;-83
2023/06/19 08:03:43;;;;;;;3.40;1.83;;;22.70;99.90;;;;;;5035890;28;20551;-82
2023/06/19 08:06:10;;;;;;;6.70;3.20;;;22.60;1.00;;;;;;5037861;28;21140;-83
2023/06/19 08:08:36;;;;;;;2.93;2.20;;;22.60;99.90;;;;;;5033832;28;20555;-82
2023/06/19 08:11:03;;;;;;;2.60;2.00;;;22.60;99.90;;;;;;5039230;28;20456;-82
2023/06/19 08:13:30;;;;;;;3.70;2.63;;;22.80;99.90;;;;;;5039177;28;20911;-83
2023/06/19 08:15:57;;;;;;;2.83;1.53;;;23.00;1.00;;;;;;5036013;28;20461;-83
2023/06/19 08:18:24;;;;;;;5.03;2.27;;;23.20;99.90;;;;;;5032868;28;20472;-81
2023/06/19 08:20:52;;;;;;;3.03;2.00;;;23.50;99.90;;;;;;5034962;28;20537;-83
2023/06/19 08:23:19;;;;;;;5.53;2.30;;;23.60;1.00;;;;;;5036119;28;20468;-83
2023/06/19 08:25:46;;;;;;;2.80;2.30;;;23.80;36.10;;;;;;5030534;28;20543;-84
2023/06/19 08:28:12;;;;;;;3.40;2.83;;;23.90;1.00;;;;;;5031990;28;20848;-83
2023/06/19 08:30:39;;;;;;;3.00;1.90;;;23.90;99.90;;;;;;5032759;28;20449;-81
2023/06/19 08:33:06;;;;;;;4.47;2.00;;;24.20;99.90;;;;;;5036488;28;20489;-83
2023/06/19 08:35:33;;;;;;;4.10;2.60;;;24.30;99.90;;;;;;5039594;28;20453;-83
2023/06/19 08:38:01;;;;;;;4.83;2.80;;;24.10;14.10;;;;;;5033841;28;20452;-83
2023/06/19 08:40:28;;;;;;;2.93;2.27;;;24.00;99.90;;;;;;5046375;28;20551;-83
2023/06/19 08:42:55;;;;;;;2.53;1.97;;;24.10;99.90;;;;;;5034932;28;20450;-83
2023/06/19 08:45:23;;;;;;;3.70;2.23;;;24.30;99.90;;;;;;5036382;28;20469;-84
2023/06/19 08:47:50;;;;;;;4.23;2.70;;;24.40;99.90;;;;;;5033193;28;20450;-84
2023/06/19 08:50:16;;;;;;;3.13;2.37;;;24.20;42.10;;;;;;5036291;28;20536;-84
2023/06/19 08:52:43;;;;;;;4.33;2.17;;;24.00;67.00;;;;;;5040144;28;20461;-82
2023/06/19 08:55:11;;;;;;;5.00;2.80;;;23.70;98.90;;;;;;5049022;28;21231;-82
2023/06/19 08:57:40;;;;;;;3.30;2.40;;;23.50;99.90;;;;;;5035728;28;20548;-85
2023/06/19 09:00:10;;;;;;;2.70;1.70;;;23.40;99.90;;;;;;5038956;28;20481;-82
2023/06/19 09:02:41;;;;;;;3.10;1.80;;;23.40;99.90;;;;;;5044387;28;20460;-83
2023/06/19 09:05:13;;;;;;;3.17;2.30;;;23.60;99.90;;;;;;5041238;28;20457;-83
2023/06/19 09:07:42;;;;;;;3.27;1.80;;;23.80;99.90;;;;;;5048321;28;21006;-83
2023/06/19 09:10:18;;;;;;;2.60;1.93;;;24.00;92.50;;;;;;5044351;28;21240;-83
2023/06/19 09:12:56;;;;;;;3.83;2.03;;;24.20;1.00;;;;;;5029351;28;20553;-83
2023/06/19 09:15:23;;;;;;;3.77;2.00;;;24.20;1.00;;;;;;5040856;28;20464;-84
2023/06/19 09:18:01;;;;;;;5.43;2.23;;;24.10;1.00;;;;;;5032430;28;20461;-82
2023/06/19 09:20:28;;;;;;;4.23;1.87;;;24.40;1.00;;;;;;5033120;28;20493;-81
2023/06/19 09:22:55;;;;;;;3.90;1.90;;;24.40;1.00;;;;;;5030070;28;20893;-83
2023/06/19 09:25:26;;;;;;;4.27;2.00;;;24.50;1.00;;;;;;5035933;28;20453;-84
2023/06/19 09:27:53;;;;;;;3.33;1.80;;;24.70;1.00;;;;;;5030712;28;20461;-84
2023/06/19 09:30:21;;;;;;;3.60;1.93;;;25.00;1.00;;;;;;5036414;28;20988;-84
2023/06/19 09:32:47;;;;;;;4.20;2.13;;;25.30;1.00;;;;;;5035295;28;20464;-84
2023/06/19 09:35:15;;;;;;;5.53;3.13;;;25.50;1.00;;;;;;5033158;28;20488;-84
2023/06/19 09:37:42;;;;;;;3.67;1.63;;;25.60;1.00;;;;;;5033538;28;20544;-83
2023/06/19 09:40:10;;;;;;;4.00;2.60;;;25.60;1.00;;;;;;5037245;28;20562;-83
2023/06/19 09:42:39;;;;;;;5.17;2.70;;;26.00;1.00;;;;;;5038277;28;20459;-85
2023/06/19 09:45:08;;;;;;;4.70;2.53;;;26.00;1.00;;;;;;5038120;28;20445;-81
2023/06/19 09:47:38;;;;;;;3.80;2.27;;;26.20;1.00;;;;;;5038122;28;20456;-83
2023/06/19 09:50:07;;;;;;;2.90;2.27;;;26.50;1.00;;;;;;5038521;28;20468;-82
2023/06/19 09:52:34;;;;;;;2.93;2.10;;;26.30;1.00;;;;;;5038953;28;20862;-82
2023/06/19 09:55:04;;;;;;;5.00;2.17;;;26.40;1.00;;;;;;5039471;28;20538;-83
2023/06/19 09:57:32;;;;;;;3.83;2.00;;;26.60;1.00;;;;;;5037494;28;20489;-83
2023/06/19 10:00:09;;;;;;;3.77;2.50;;;27.10;1.00;;;;;;5045008;28;20472;-83
2023/06/19 10:02:36;;;;;;;5.17;3.10;;;27.30;1.00;;;;;;5035367;28;20461;-83
2023/06/19 10:05:03;;;;;;;4.10;2.63;;;27.00;1.00;;;;;;5041848;28;20445;-82
2023/06/19 10:07:34;;;;;;;4.90;2.40;;;26.70;1.00;;;;;;5040394;28;20452;-82
2023/06/19 10:10:05;;;;;;;4.30;2.63;;;26.30;1.00;;;;;;5037541;28;20471;-84
2023/06/19 10:12:40;;;;;;;3.40;2.40;;;26.00;1.00;;;;;;5076492;22;20494;-80
2023/06/19 10:15:18;;;;;;;3.47;2.50;;;26.00;1.00;;;;;;5073685;28;20856;-80
2023/06/19 10:17:47;;;;;;;5.30;2.60;;;26.10;1.00;;;;;;5076015;28;20449;-80
2023/06/19 10:20:25;;;;;;;3.50;2.80;;;26.60;1.00;;;;;;5076451;28;20966;-79
2023/06/19 10:22:54;;;;;;;4.73;2.60;;;26.90;1.00;;;;;;5079877;28;20553;-81
2023/06/19 10:25:22;;;;;;;6.33;2.87;;;27.60;1.00;;;;;;5084301;28;20807;-80
2023/06/19 10:27:52;;;;;;;4.97;3.00;;;27.60;99.90;;;;;;5085707;28;20479;-79
2023/06/19 10:30:20;;;;;;;5.20;3.13;;;27.30;99.90;;;;;;5079044;28;20488;-80
2023/06/19 10:32:47;;;;;;;5.33;2.57;;;26.80;99.90;;;;;;5093326;28;21031;-82
2023/06/19 10:35:16;;;;;;;3.63;2.70;;;27.20;99.90;;;;;;5091703;28;20996;-80
2023/06/19 10:37:43;;;;;;;4.23;2.50;;;27.50;99.90;;;;;;5083521;28;20453;-82
2023/06/19 10:40:12;;;;;;;4.40;2.67;;;27.60;99.90;;;;;;5080259;28;20546;-81
2023/06/19 10:42:39;;;;;;;4.20;2.90;;;27.60;99.90;;;;;;5084764;28;20483;-79
2023/06/19 10:45:09;;;;;;;3.60;2.93;;;27.70;99.90;;;;;;5087981;28;20560;-80
2023/06/19 10:47:39;;;;;;;4.30;3.00;;;27.90;99.90;;;;;;5091864;28;21048;-80
2023/06/19 10:50:10;;;;;;;8.57;3.03;;;28.40;99.90;;;;;;5086811;28;20450;-81
2023/06/19 10:52:37;;;;;;;5.10;3.00;;;28.70;99.90;;;;;;5084725;28;20566;-81
2023/06/19 10:55:05;;;;;;;4.63;3.00;;;28.90;99.90;;;;;;5089707;28;20569;-81
2023/06/19 10:57:32;;;;;;;6.27;2.77;;;29.00;99.90;;;;;;5082001;28;20455;-79
2023/06/19 11:00:00;;;;;;;5.53;3.50;;;29.30;99.90;;;;;;5085648;28;21752;-80
2023/06/19 11:02:27;;;;;;;7.13;2.50;;;29.10;99.90;;;;;;5085660;28;20466;-79
2023/06/19 11:04:56;;;;;;;7.60;2.97;;;29.00;99.90;;;;;;5085977;28;20832;-79
2023/06/19 11:07:23;;;;;;;6.83;2.60;;;28.60;99.90;;;;;;5092328;28;20451;-80
2023/06/19 11:09:50;;;;;;;4.80;2.93;;;29.00;99.90;;;;;;5092577;28;20468;-80
2023/06/19 11:12:20;;;;;;;4.57;3.67;;;29.40;99.90;;;;;;5089980;28;20449;-79
2023/06/19 11:14:48;;;;;;;7.20;4.00;;;29.40;99.90;;;;;;5087489;28;20478;-81
2023/06/19 11:17:15;;;;;;;6.30;3.57;;;29.10;99.90;;;;;;5091370;28;20450;-80
2023/06/19 11:19:44;;;;;;;5.90;3.63;;;29.20;99.90;;;;;;5095912;28;20456;-79
2023/06/19 11:22:12;;;;;;;3.83;2.80;;;29.30;99.90;;;;;;5083051;28;20458;-79
2023/06/19 11:24:45;;;;;;;6.23;3.60;;;29.40;99.90;;;;;;5095279;28;20443;-78
2023/06/19 11:27:19;;;;;;;6.23;3.20;;;29.40;99.90;;;;;;5090628;28;20629;-81
2023/06/19 11:29:46;;;;;;;4.17;2.73;;;29.60;99.90;;;;;;5087113;28;20448;-80
2023/06/19 11:32:15;;;;;;;5.10;3.07;;;29.80;99.90;;;;;;5086689;28;21000;-81
2023/06/19 11:34:44;;;;;;;7.67;3.23;;;29.80;99.90;;;;;;5091003;28;20489;-80
2023/06/19 11:37:16;;;;;;;3.93;2.80;;;29.80;99.90;;;;;;5086724;28;20468;-81
2023/06/19 11:39:45;;;;;;;4.30;3.07;;;29.90;99.90;;;;;;5082527;28;20465;-80
2023/06/19 11:42:11;;;;;;;5.47;3.50;;;29.80;99.90;;;;;;5087896;28;20457;-81
2023/06/19 11:44:54;;;;;;;5.90;3.33;;;29.60;99.90;;;;;;5086078;28;20446;-80
2023/06/19 11:47:21;;;;;;;5.30;4.03;;;29.90;99.90;;;;;;5081867;28;20450;-80
2023/06/19 11:49:49;;;;;;;7.00;4.00;;;30.20;99.90;;;;;;5087026;28;20525;-81
2023/06/19 11:52:17;;;;;;;4.60;3.37;;;30.60;99.90;;;;;;5085856;28;20443;-81
2023/06/19 11:54:44;;;;;;;4.83;3.40;;;31.00;99.90;;;;;;5082644;28;20562;-80
2023/06/19 11:57:12;;;;;;;4.00;3.13;;;30.80;99.90;;;;;;5086030;28;20447;-81
2023/06/19 11:59:40;;;;;;;5.00;3.40;;;30.70;99.90;;;;;;5089118;28;20454;-81
2023/06/19 12:02:07;;;;;;;3.50;2.97;;;31.20;99.90;;;;;;5086334;28;20476;-79
2023/06/19 12:04:34;;;;;;;6.40;3.37;;;31.90;99.90;;;;;;5084926;28;22227;-82
2023/06/19 12:07:03;;;;;;;4.93;3.20;;;32.40;99.90;;;;;;5092419;28;20459;-82
2023/06/19 12:09:32;;;;;;;4.97;3.57;;;32.50;99.90;;;;;;5083090;28;20969;-80
2023/06/19 12:12:00;;;;;;;5.20;3.47;;;31.90;99.90;;;;;;5090733;28;20958;-81
2023/06/19 12:14:27;;;;;;;6.20;3.90;;;32.10;99.90;;;;;;5083440;28;20475;-80
2023/06/19 12:16:56;;;;;;;5.20;3.77;;;31.80;99.90;;;;;;5086745;28;20446;-82
2023/06/19 12:19:23;;;;;;;5.00;3.57;;;31.70;99.90;;;;;;5078990;28;20451;-81
2023/06/19 12:21:49;;;;;;;3.83;3.10;;;32.00;99.90;;;;;;5081126;28;20542;-81
2023/06/19 12:24:16;;;;;;;4.80;3.63;;;32.40;99.90;;;;;;5090295;28;20469;-80
2023/06/19 12:26:44;;;;;;;5.60;3.60;;;32.30;99.90;;;;;;5089893;28;20457;-81
2023/06/19 12:29:12;;;;;;;5.17;3.83;;;31.70;99.90;;;;;;5087775;28;20670;-82
2023/06/19 12:31:39;;;;;;;5.40;3.20;;;31.40;99.90;;;;;;5086171;28;20902;-79
2023/06/19 12:34:06;;;;;;;6.57;3.10;;;31.60;99.90;;;;;;5087636;28;20486;-81
2023/06/19 12:36:33;;;;;;;4.20;3.50;;;31.40;99.90;;;;;;5089128;28;20459;-81
2023/06/19 12:39:02;;;;;;;5.13;3.77;;;31.60;99.90;;;;;;5089701;28;20458;-81
2023/06/19 12:41:29;;;;;;;4.17;3.43;;;31.20;99.90;;;;;;5088546;28;21073;-80
2023/06/19 12:43:58;;;;;;;5.70;3.83;;;30.80;99.90;;;;;;5081384;28;20478;-81
2023/06/19 12:46:24;;;;;;;4.50;3.47;;;30.70;99.90;;;;;;5092930;28;20456;-80
2023/06/19 12:48:51;;;;;;;4.50;4.00;;;31.00;99.90;;;;;;5082703;28;20495;-81
2023/06/19 12:51:18;;;;;;;4.77;3.80;;;31.40;99.90;;;;;;5089806;28;20476;-81
2023/06/19 12:53:46;;;;;;;5.80;4.43;;;31.70;99.90;;;;;;5084303;28;20534;-82
2023/06/19 12:56:13;;;;;;;4.93;4.13;;;31.70;99.90;;;;;;5080269;28;20474;-80
2023/06/19 12:58:40;;;;;;;6.67;4.27;;;31.50;99.90;;;;;;5088511;28;20457;-81
2023/06/19 13:01:08;;;;;;;5.13;3.80;;;31.40;99.90;;;;;;5086775;28;20538;-81
2023/06/19 13:03:35;;;;;;;4.37;3.87;;;31.40;99.90;;;;;;5082595;28;20494;-80
2023/06/19 13:06:02;;;;;;;6.40;3.83;;;31.00;99.90;;;;;;5085232;28;20517;-80
2023/06/19 13:08:29;;;;;;;6.03;3.53;;;30.60;99.90;;;;;;5086059;28;20515;-82
2023/06/19 13:10:56;;;;;;;5.20;3.67;;;30.20;99.90;;;;;;5087418;28;20563;-80
2023/06/19 13:13:23;;;;;;;5.00;4.00;;;29.90;99.90;;;;;;5083564;28;20915;-82
2023/06/19 13:15:49;;;;;;;4.33;3.27;;;29.80;99.90;;;;;;5085724;28;20517;-82
2023/06/19 13:18:19;;;;;;;5.40;3.97;;;29.80;99.90;;;;;;5085332;28;20458;-80
2023/06/19 13:20:47;;;;;;;7.07;4.07;;;29.70;99.90;;;;;;5077395;28;20468;-78
2023/06/19 13:23:14;;;;;;;6.67;4.83;;;29.80;99.90;;;;;;5087141;28;20479;-78
2023/06/19 13:25:41;;;;;;;5.97;4.17;;;30.30;99.90;;;;;;5085234;28;20455;-80
2023/06/19 13:28:08;;;;;;;5.40;3.97;;;31.10;99.90;;;;;;5085421;28;21212;-81
2023/06/19 13:30:35;;;;;;;5.40;4.33;;;31.70;99.90;;;;;;5080861;28;20542;-82
2023/06/19 13:33:02;;;;;;;5.30;3.93;;;32.20;99.90;;;;;;5084756;28;20473;-80
2023/06/19 13:35:31;;;;;;;4.80;3.60;;;32.60;99.90;;;;;;5089974;28;20557;-80
2023/06/19 13:37:59;;;;;;;5.03;3.63;;;33.00;99.90;;;;;;5091152;28;20457;-83
2023/06/19 13:40:26;;;;;;;5.90;3.90;;;33.40;99.90;;;;;;5091025;28;20449;-80
2023/06/19 13:42:53;;;;;;;6.27;4.20;;;33.70;99.90;;;;;;5087396;28;20562;-80
2023/06/19 13:45:20;;;;;;;7.70;3.67;;;33.80;99.90;;;;;;5083317;28;20465;-81
2023/06/19 13:47:47;;;;;;;6.40;4.50;;;33.70;99.90;;;;;;5089495;28;20477;-84
2023/06/19 13:50:17;;;;;;;5.53;4.23;;;33.80;99.90;;;;;;5092186;28;20916;-82
2023/06/19 13:52:46;;;;;;;4.30;3.90;;;34.20;99.90;;;;;;5089237;28;20570;-81